Terminal Aerodrome Forecast
Issued by NWS

Current Version | Previous Version | Text Only | Print | Product List | Glossary Off
Versions: 1 2 3 4 5 6 7 8 9 10 11 12 13 14 15

000
FTUS41 KRNK 230521
TAFLWB
TAF
KLWB 230521Z 2306/2406 00000KT P6SM SKC
     FM230800 00000KT 5SM BR SCT003
      TEMPO 2308/2309 2SM BR BKN001
     FM230900 00000KT 1/2SM FG OVC001
     FM231230 00000KT P6SM FEW150
     FM231600 31004KT P6SM SCT040
     FM232300 00000KT P6SM SCT250=

USA.gov is the U.S. government's official web portal to all federal, state and local government web resources and services.